Time,TemperatureF,DewpointF,PressureIn,WindDirection,WindDirectionDegrees,WindSpeedMPH,WindSpeedGustMPH,Humidity,HourlyPrecipIn,Conditions,Clouds,dailyrainin,SoftwareType,DateUTC
2013-11-11 00:22:00,44.0,33.0,30.32,South,189,4.0,10.0,64,0.00,,,0.00,,2013-11-11 06:22:00,
2013-11-11 00:42:00,44.0,32.0,30.32,South,188,2.0,8.0,63,0.00,,,0.00,,2013-11-11 06:42:00,
2013-11-11 00:52:00,44.0,32.0,30.32,SE,125,2.0,5.0,63,0.00,,,0.00,,2013-11-11 06:52:00,
2013-11-11 01:22:00,43.0,32.0,30.31,SSW,207,0.0,6.0,64,0.00,,,0.00,,2013-11-11 07:22:00,
2013-11-11 01:42:00,43.0,32.0,30.31,SSW,192,0.0,4.0,65,0.00,,,0.00,,2013-11-11 07:42:00,
2013-11-11 01:52:00,43.0,32.0,30.31,South,187,0.0,3.0,65,0.00,,,0.00,,2013-11-11 07:52:00,
2013-11-11 02:22:00,43.0,32.0,30.30,South,178,0.0,1.0,66,0.00,,,0.00,,2013-11-11 08:22:00,
2013-11-11 02:42:00,43.0,32.0,30.30,South,189,0.0,4.0,66,0.00,,,0.00,,2013-11-11 08:42:00,
2013-11-11 02:52:00,43.0,32.0,30.29,South,176,2.0,6.0,65,0.00,,,0.00,,2013-11-11 08:52:00,
2013-11-11 03:22:00,43.0,32.0,30.29,SSW,196,0.0,4.0,65,0.00,,,0.00,,2013-11-11 09:22:00,
2013-11-11 03:43:00,43.0,32.0,30.28,South,171,0.0,0.0,66,0.00,,,0.00,,2013-11-11 09:43:00,
2013-11-11 03:53:00,43.0,32.0,30.28,South,180,1.0,4.0,66,0.00,,,0.00,,2013-11-11 09:53:00,
2013-11-11 04:23:00,43.0,33.0,30.27,South,180,0.0,0.0,67,0.00,,,0.00,,2013-11-11 10:23:00,
2013-11-11 04:42:00,42.0,33.0,30.28,South,180,0.0,0.0,71,0.00,,,0.00,,2013-11-11 10:42:00,
2013-11-11 04:52:00,42.0,35.0,30.28,South,180,0.0,0.0,76,0.00,,,0.00,,2013-11-11 10:52:00,
2013-11-11 05:21:00,42.0,35.0,30.27,South,180,0.0,0.0,75,0.00,,,0.00,,2013-11-11 11:21:00,
2013-11-11 05:42:00,42.0,34.0,30.27,South,178,1.0,5.0,74,0.00,,,0.00,,2013-11-11 11:42:00,
2013-11-11 05:52:00,42.0,34.0,30.27,SSE,167,1.0,5.0,74,0.00,,,0.00,,2013-11-11 11:52:00,
2013-11-11 06:12:00,43.0,35.0,30.27,SSW,196,0.0,3.0,72,0.00,,,0.00,,2013-11-11 12:12:00,
2013-11-11 06:22:00,43.0,35.0,30.27,South,189,0.0,3.0,73,0.00,,,0.00,,2013-11-11 12:22:00,
2013-11-11 06:42:00,44.0,36.0,30.27,South,189,0.0,0.0,74,0.00,,,0.00,,2013-11-11 12:42:00,
2013-11-11 06:52:00,44.0,36.0,30.27,South,189,0.0,0.0,73,0.00,,,0.00,,2013-11-11 12:52:00,
2013-11-11 07:11:00,45.0,36.0,30.27,SSW,193,1.0,4.0,71,0.00,,,0.00,,2013-11-11 13:11:00,
2013-11-11 07:21:00,46.0,37.0,30.27,SSW,209,3.0,10.0,70,0.00,,,0.00,,2013-11-11 13:21:00,
2013-11-11 07:42:00,47.0,37.0,30.27,SW,216,1.0,10.0,68,0.00,,,0.00,,2013-11-11 13:42:00,
2013-11-11 07:52:00,47.0,38.0,30.27,SSW,196,4.0,10.0,70,0.00,,,0.00,,2013-11-11 13:52:00,
2013-11-11 08:21:00,46.0,40.0,30.27,South,190,6.0,10.0,78,0.01,,,0.01,,2013-11-11 14:21:00,
2013-11-11 08:42:00,47.0,40.0,30.27,SSW,200,3.0,7.0,76,0.01,,,0.01,,2013-11-11 14:42:00,
2013-11-11 08:52:00,47.0,39.0,30.27,South,180,3.0,7.0,75,0.01,,,0.01,,2013-11-11 14:52:00,
2013-11-11 09:21:00,48.0,40.0,30.26,SSW,198,2.0,7.0,74,0.00,,,0.01,,2013-11-11 15:21:00,
2013-11-11 09:43:00,49.0,39.0,30.26,SSW,199,4.0,9.0,69,0.00,,,0.01,,2013-11-11 15:43:00,
2013-11-11 09:53:00,50.0,40.0,30.26,SW,214,4.0,8.0,69,0.00,,,0.01,,2013-11-11 15:53:00,
2013-11-11 10:23:00,51.0,40.0,30.25,SSW,209,4.0,9.0,66,0.00,,,0.01,,2013-11-11 16:23:00,
2013-11-11 10:53:00,53.0,41.0,30.24,SSW,202,4.0,14.0,63,0.00,,,0.01,,2013-11-11 16:53:00,
2013-11-11 11:22:00,55.0,43.0,30.24,SW,217,2.0,8.0,63,0.00,,,0.01,,2013-11-11 17:22:00,
2013-11-11 11:42:00,56.0,42.0,30.22,SSW,210,4.0,13.0,59,0.00,,,0.01,,2013-11-11 17:42:00,
2013-11-11 11:52:00,57.0,43.0,30.22,SSW,204,2.0,9.0,59,0.00,,,0.01,,2013-11-11 17:52:00,
2013-11-11 12:23:00,62.0,46.0,30.21,SSW,209,2.0,11.0,56,0.00,,,0.01,,2013-11-11 18:23:00,
2013-11-11 12:42:00,64.0,47.0,30.20,WSW,249,3.0,9.0,54,0.00,,,0.01,,2013-11-11 18:42:00,
2013-11-11 12:52:00,65.0,48.0,30.19,WSW,240,0.0,9.0,55,0.00,,,0.01,,2013-11-11 18:52:00,
2013-11-11 13:22:00,66.0,49.0,30.17,SW,232,0.0,9.0,54,0.00,,,0.01,,2013-11-11 19:22:00,
2013-11-11 13:42:00,65.0,48.0,30.17,WSW,242,1.0,10.0,54,0.00,,,0.01,,2013-11-11 19:42:00,
2013-11-11 13:52:00,64.0,47.0,30.17,SW,233,1.0,8.0,55,0.00,,,0.01,,2013-11-11 19:52:00,
2013-11-11 14:11:00,64.0,48.0,30.17,WNW,283,1.0,7.0,56,0.00,,,0.01,,2013-11-11 20:11:00,
2013-11-11 14:22:00,64.0,48.0,30.16,WSW,247,1.0,9.0,56,0.00,,,0.01,,2013-11-11 20:22:00,
2013-11-11 14:42:00,64.0,47.0,30.16,West,271,1.0,7.0,55,0.00,,,0.01,,2013-11-11 20:42:00,
2013-11-11 14:52:00,64.0,48.0,30.16,WSW,250,1.0,7.0,56,0.00,,,0.01,,2013-11-11 20:52:00,
2013-11-11 15:22:00,63.0,47.0,30.17,West,279,0.0,7.0,56,0.00,,,0.01,,2013-11-11 21:22:00,
2013-11-11 15:43:00,62.0,48.0,30.18,West,268,1.0,5.0,60,0.00,,,0.01,,2013-11-11 21:43:00,
2013-11-11 15:54:00,62.0,48.0,30.18,West,273,2.0,7.0,60,0.00,,,0.01,,2013-11-11 21:54:00,
2013-11-11 16:24:00,60.0,50.0,30.20,NNW,327,5.0,15.0,69,0.00,,,0.01,,2013-11-11 22:24:00,
2013-11-11 16:43:00,58.0,49.0,30.21,NNW,327,4.0,14.0,73,0.00,,,0.01,,2013-11-11 22:43:00,
2013-11-11 16:53:00,57.0,49.0,30.21,North,355,3.0,10.0,74,0.00,,,0.01,,2013-11-11 22:53:00,
2013-11-11 17:22:00,54.0,46.0,30.24,NE,40,3.0,14.0,74,0.00,,,0.01,,2013-11-11 23:22:00,
2013-11-11 17:42:00,51.0,43.0,30.27,North,360,7.0,21.0,75,0.00,,,0.01,,2013-11-11 23:42:00,
2013-11-11 17:53:00,49.0,42.0,30.28,NNE,22,7.0,22.0,77,0.00,,,0.01,,2013-11-11 23:53:00,
2013-11-11 18:22:00,46.0,41.0,30.31,North,11,8.0,14.0,82,0.00,,,0.01,,2013-11-12 00:22:00,
2013-11-11 18:42:00,45.0,41.0,30.32,NNW,329,6.0,14.0,85,0.00,,,0.01,,2013-11-12 00:42:00,
2013-11-11 18:52:00,45.0,41.0,30.33,North,355,6.0,16.0,87,0.00,,,0.01,,2013-11-12 00:52:00,
2013-11-11 19:11:00,43.0,40.0,30.34,NW,317,10.0,25.0,88,0.00,,,0.01,,2013-11-12 01:11:00,
2013-11-11 19:22:00,43.0,40.0,30.35,NNE,22,7.0,26.0,88,0.01,,,0.02,,2013-11-12 01:22:00,
2013-11-11 19:42:00,42.0,39.0,30.35,North,355,6.0,15.0,90,0.01,,,0.02,,2013-11-12 01:42:00,
2013-11-11 19:52:00,42.0,39.0,30.37,NW,306,9.0,23.0,90,0.01,,,0.02,,2013-11-12 01:52:00,
2013-11-11 20:22:00,40.0,37.0,30.39,NE,41,5.0,17.0,89,0.02,,,0.04,,2013-11-12 02:22:00,
2013-11-11 20:42:00,39.0,37.0,30.40,NNE,23,5.0,13.0,91,0.03,,,0.05,,2013-11-12 02:42:00,
2013-11-11 20:52:00,39.0,37.0,30.41,NW,325,4.0,16.0,91,0.04,,,0.06,,2013-11-12 02:52:00,
2013-11-11 21:21:00,38.0,36.0,30.44,North,355,2.0,12.0,91,0.05,,,0.09,,2013-11-12 03:21:00,
2013-11-11 21:45:00,37.0,35.0,30.45,NW,321,8.0,16.0,91,0.05,,,0.10,,2013-11-12 03:45:00,
2013-11-11 21:54:00,37.0,35.0,30.45,North,5,6.0,14.0,91,0.04,,,0.10,,2013-11-12 03:54:00,
2013-11-11 22:14:00,36.0,34.0,30.47,North,5,10.0,19.0,91,0.03,,,0.10,,2013-11-12 04:14:00,
2013-11-11 22:24:00,36.0,34.0,30.47,NNW,335,7.0,17.0,91,0.01,,,0.10,,2013-11-12 04:24:00,
2013-11-11 22:43:00,35.0,33.0,30.49,NNW,341,6.0,14.0,91,0.00,,,0.10,,2013-11-12 04:43:00,
2013-11-11 22:53:00,35.0,33.0,30.50,North,355,7.0,19.0,91,0.00,,,0.10,,2013-11-12 04:53:00,
2013-11-11 23:23:00,34.0,32.0,30.51,NNW,337,5.0,14.0,91,0.00,,,0.10,,2013-11-12 05:23:00,
2013-11-11 23:53:00,33.0,30.0,30.53,NW,325,8.0,16.0,90,0.00,,,0.10,,2013-11-12 05:53:00,